createdAt,value
2023-12-24T00:00:47.242Z,100792.88
2023-12-24T00:03:14.164Z,100790.22
2023-12-24T00:05:40.776Z,100782.22
2023-12-24T00:08:07.305Z,100768.78
2023-12-24T00:10:33.761Z,100763.38
2023-12-24T00:13:00.224Z,100756.38
2023-12-24T00:15:26.703Z,100766.03
2023-12-24T00:17:53.588Z,100750.69
2023-12-24T00:20:20.309Z,100734.97
2023-12-24T00:23:04.178Z,100715.41
2023-12-24T00:25:30.908Z,100719.97
2023-12-24T00:27:59.692Z,100710.41
2023-12-24T00:30:29.729Z,100727.13
2023-12-24T00:33:07.091Z,100727.00
2023-12-24T00:35:35.364Z,100717.31
2023-12-24T00:38:01.995Z,100713.06
2023-12-24T00:40:28.442Z,100708.72
2023-12-24T00:43:06.516Z,100702.44
2023-12-24T00:45:33.111Z,100688.38
2023-12-24T00:47:59.814Z,100694.69
2023-12-24T00:50:26.633Z,100682.13
2023-12-24T00:52:53.606Z,100675.22
2023-12-24T00:55:20.682Z,100675.44
2023-12-24T00:57:47.308Z,100675.44
2023-12-24T01:00:14.441Z,100682.59
2023-12-24T01:02:40.981Z,100688.00
2023-12-24T01:05:08.862Z,100691.72
2023-12-24T01:07:40.701Z,100695.47
2023-12-24T01:10:07.981Z,100688.56
2023-12-24T01:12:34.512Z,100694.47
2023-12-24T01:15:00.933Z,100683.31
2023-12-24T01:17:31.942Z,100682.06
2023-12-24T01:19:59.054Z,100691.34
2023-12-24T01:22:26.229Z,100689.84
2023-12-24T01:24:52.700Z,100685.81
2023-12-24T01:27:19.477Z,100686.03
2023-12-24T01:29:46.140Z,100683.75
2023-12-24T01:32:12.697Z,100679.50
2023-12-24T01:34:39.275Z,100685.03
2023-12-24T01:37:05.753Z,100679.94
2023-12-24T01:39:33.959Z,100676.66
2023-12-24T01:42:00.661Z,100660.81
2023-12-24T01:44:27.229Z,100668.16
2023-12-24T01:46:54.524Z,100662.94
2023-12-24T01:49:21.727Z,100662.22
2023-12-24T01:51:48.379Z,100656.03
2023-12-24T01:54:19.583Z,100655.31
2023-12-24T01:56:48.370Z,100652.66
2023-12-24T01:59:16.753Z,100649.25
2023-12-24T02:01:44.017Z,100647.56
2023-12-24T02:04:10.600Z,100649.25
2023-12-24T02:06:37.674Z,100642.97
2023-12-24T02:09:04.256Z,100648.28
2023-12-24T02:11:30.933Z,100651.91
2023-12-24T02:13:57.857Z,100634.91
2023-12-24T02:16:38.841Z,100626.81
2023-12-24T02:19:06.067Z,100624.06
2023-12-24T02:21:32.582Z,100611.53
2023-12-24T02:24:10.998Z,100601.75
2023-12-24T02:27:06.082Z,100576.53
2023-12-24T02:29:43.238Z,100580.03
2023-12-24T02:32:15.139Z,100598.63
2023-12-24T02:34:44.727Z,100601.06
2023-12-24T02:37:11.989Z,100608.94
2023-12-24T02:39:40.006Z,100581.41
2023-12-24T02:42:10.404Z,100577.06
2023-12-24T02:44:43.604Z,100586.72
2023-12-24T02:47:10.141Z,100604.97
2023-12-24T02:49:36.751Z,100590.59
2023-12-24T02:52:03.370Z,100616.84
2023-12-24T02:54:29.889Z,100583.16
2023-12-24T02:56:56.499Z,100598.03
2023-12-24T02:59:23.827Z,100605.25
2023-12-24T03:01:50.300Z,100600.91
2023-12-24T03:04:17.398Z,100594.84
2023-12-24T03:06:44.146Z,100592.31
2023-12-24T03:09:11.991Z,100581.56
2023-12-24T03:11:38.525Z,100579.88
2023-12-24T03:14:05.106Z,100561.16
2023-12-24T03:16:31.645Z,100565.38
2023-12-24T03:18:58.364Z,100553.69
2023-12-24T03:21:34.098Z,100552.72
2023-12-24T03:24:00.545Z,100552.84
2023-12-24T03:26:27.107Z,100548.50
2023-12-24T03:28:53.560Z,100543.19
2023-12-24T03:31:22.615Z,100541.25
2023-12-24T03:33:55.094Z,100527.84
2023-12-24T03:36:21.818Z,100537.41
2023-12-24T03:38:48.460Z,100546.22
2023-12-24T03:41:16.846Z,100544.19
2023-12-24T03:43:43.370Z,100536.22
2023-12-24T03:46:09.894Z,100521.84
2023-12-24T03:48:38.255Z,100524.38
2023-12-24T03:51:05.261Z,100520.88
2023-12-24T03:53:38.929Z,100520.88
2023-12-24T03:56:06.041Z,100528.75
2023-12-24T03:58:32.486Z,100524.13
2023-12-24T04:00:58.992Z,100522.34
2023-12-24T04:03:25.457Z,100522.97
2023-12-24T04:05:52.077Z,100519.31
2023-12-24T04:08:18.730Z,100518.00
2023-12-24T04:10:45.970Z,100524.16
2023-12-24T04:13:12.668Z,100520.56
2023-12-24T04:15:39.192Z,100523.22
2023-12-24T04:18:05.866Z,100525.00
2023-12-24T04:20:32.588Z,100509.94
2023-12-24T04:22:59.217Z,100523.00
2023-12-24T04:25:25.895Z,100518.28
2023-12-24T04:27:52.553Z,100511.16
2023-12-24T04:30:19.254Z,100512.81
2023-12-24T04:32:45.891Z,100518.16
2023-12-24T04:35:12.680Z,100521.69
2023-12-24T04:37:39.262Z,100505.59
2023-12-24T04:40:06.435Z,100509.81
2023-12-24T04:42:33.246Z,100506.31
2023-12-24T04:44:59.750Z,100507.28
2023-12-24T04:47:26.540Z,100498.44
2023-12-24T04:49:56.047Z,100485.66
2023-12-24T04:52:22.621Z,100485.66
2023-12-24T04:54:49.068Z,100486.63
2023-12-24T04:57:15.672Z,100486.41
2023-12-24T04:59:49.535Z,100488.06
2023-12-24T05:02:16.145Z,100472.97
2023-12-24T05:04:42.650Z,100487.97
2023-12-24T05:07:09.204Z,100472.00
2023-12-24T05:09:52.080Z,100476.13
2023-12-24T05:12:18.622Z,100467.16
2023-12-24T05:14:45.194Z,100475.13
2023-12-24T05:17:25.936Z,100458.22
2023-12-24T05:19:52.646Z,100472.22
2023-12-24T05:22:19.556Z,100473.94
2023-12-24T05:24:45.985Z,100474.91
2023-12-24T05:27:20.957Z,100475.63
2023-12-24T05:29:47.852Z,100461.34
2023-12-24T05:32:14.601Z,100457.75
2023-12-24T05:34:41.209Z,100460.28
2023-12-24T05:37:08.008Z,100462.94
2023-12-24T05:39:46.298Z,100457.59
2023-12-24T05:42:12.806Z,100452.19
2023-12-24T05:44:39.324Z,100448.53
2023-12-24T05:47:14.894Z,100460.41
2023-12-24T05:49:41.503Z,100448.78
2023-12-24T05:52:07.986Z,100449.63
2023-12-24T05:54:34.477Z,100447.47
2023-12-24T05:57:01.109Z,100443.97
2023-12-24T05:59:35.334Z,100437.78
2023-12-24T06:02:03.442Z,100429.44
2023-12-24T06:04:29.967Z,100427.59
2023-12-24T06:06:56.509Z,100430.25
2023-12-24T06:09:24.345Z,100432.81
2023-12-24T06:11:50.842Z,100435.34
2023-12-24T06:14:17.418Z,100441.50
2023-12-24T06:16:44.031Z,100447.69
2023-12-24T06:19:11.880Z,100440.41
2023-12-24T06:21:49.355Z,100432.44
2023-12-24T06:24:20.497Z,100430.66
2023-12-24T06:26:47.087Z,100420.00
2023-12-24T06:29:26.702Z,100443.81
2023-12-24T06:31:56.594Z,100447.44
2023-12-24T06:34:23.390Z,100439.47
2023-12-24T06:36:59.344Z,100438.50
2023-12-24T06:39:26.113Z,100440.31
2023-12-24T06:41:54.608Z,100441.16
2023-12-24T06:44:21.272Z,100434.00
2023-12-24T06:46:47.859Z,100444.66
2023-12-24T06:49:14.380Z,100450.56
2023-12-24T06:51:40.866Z,100451.31
2023-12-24T06:54:07.624Z,100432.66
2023-12-24T06:56:34.124Z,100428.31
2023-12-24T06:59:19.329Z,100423.94
2023-12-24T07:01:46.018Z,100432.41
2023-12-24T07:04:14.976Z,100434.25
2023-12-24T07:06:41.797Z,100415.63
2023-12-24T07:09:08.415Z,100434.00
2023-12-24T07:11:34.943Z,100434.97
2023-12-24T07:14:01.485Z,100427.84
2023-12-24T07:16:28.067Z,100425.91
2023-12-24T07:18:54.774Z,100418.75
2023-12-24T07:21:21.518Z,100423.00
2023-12-24T07:23:48.189Z,100425.75
2023-12-24T07:26:14.703Z,100425.66
2023-12-24T07:28:41.279Z,100432.66
2023-12-24T07:31:11.459Z,100430.84
2023-12-24T07:33:47.492Z,100428.06
2023-12-24T07:36:19.781Z,100426.25
2023-12-24T07:38:47.582Z,100424.31
2023-12-24T07:41:26.389Z,100423.56
2023-12-24T07:43:53.817Z,100408.44
2023-12-24T07:46:20.306Z,100422.59
2023-12-24T07:48:54.279Z,100423.44
2023-12-24T07:51:20.913Z,100426.97
2023-12-24T07:54:13.624Z,100429.63
2023-12-24T07:56:52.210Z,100416.31
2023-12-24T07:59:19.009Z,100425.16
2023-12-24T08:01:45.508Z,100435.78
2023-12-24T08:04:11.956Z,100422.47
2023-12-24T08:06:38.695Z,100417.16
2023-12-24T08:09:05.311Z,100406.50
2023-12-24T08:11:31.946Z,100411.84
2023-12-24T08:13:58.651Z,100414.97
2023-12-24T08:16:25.141Z,100402.38
2023-12-24T08:18:51.730Z,100410.00
2023-12-24T08:21:18.225Z,100410.28
2023-12-24T08:26:25.364Z,100411.13
2023-12-24T08:29:02.632Z,100404.81
2023-12-24T08:31:29.289Z,100415.34
2023-12-24T08:33:55.907Z,100420.78
2023-12-24T08:36:22.629Z,100413.78
2023-12-24T08:38:50.554Z,100426.25
2023-12-24T08:41:17.250Z,100423.44
2023-12-24T08:43:43.747Z,100415.59
2023-12-24T08:46:26.216Z,100425.38
2023-12-24T08:49:11.527Z,100431.44
2023-12-24T08:51:38.132Z,100419.22
2023-12-24T08:54:04.972Z,100420.91
2023-12-24T08:56:35.298Z,100398.75
2023-12-24T08:59:17.173Z,100408.44
2023-12-24T09:01:43.715Z,100402.97
2023-12-24T09:04:10.249Z,100407.47
2023-12-24T09:06:40.096Z,100396.81
2023-12-24T09:09:06.646Z,100403.72
2023-12-24T09:11:35.941Z,100409.75
2023-12-24T09:14:02.710Z,100420.03
2023-12-24T09:16:31.671Z,100417.00
2023-12-24T09:19:03.718Z,100403.41
2023-12-24T09:21:30.227Z,100392.75
2023-12-24T09:23:59.784Z,100399.06
2023-12-24T09:26:52.308Z,100403.53
2023-12-24T09:29:22.812Z,100392.75
2023-12-24T09:31:55.734Z,100389.25
2023-12-24T09:34:22.271Z,100393.59
2023-12-24T09:36:48.930Z,100380.19
2023-12-24T09:39:15.571Z,100389.00
2023-12-24T09:41:42.134Z,100376.38
2023-12-24T09:44:17.562Z,100378.22
2023-12-24T09:46:44.076Z,100373.59
2023-12-24T09:49:10.811Z,100366.44
2023-12-24T09:54:30.925Z,100389.44
2023-12-24T09:56:57.600Z,100396.47
2023-12-24T09:59:24.125Z,100392.72
2023-12-24T10:01:50.685Z,100398.75
2023-12-24T10:04:19.873Z,100408.31
2023-12-24T10:06:52.678Z,100415.19
2023-12-24T10:09:22.770Z,100420.28
2023-12-24T10:12:10.464Z,100408.25
2023-12-24T10:14:38.399Z,100410.91
2023-12-24T10:17:05.142Z,100416.13
2023-12-24T10:19:32.058Z,100411.25
2023-12-24T10:22:17.319Z,100407.63
2023-12-24T10:25:03.915Z,100404.97
2023-12-24T10:27:30.872Z,100399.22
2023-12-24T10:30:17.612Z,100417.03
2023-12-24T10:32:45.193Z,100397.13
2023-12-24T10:35:12.343Z,100380.31
2023-12-24T10:37:39.228Z,100390.84
2023-12-24T10:40:06.990Z,100391.81
2023-12-24T10:42:33.589Z,100387.19
2023-12-24T10:45:00.325Z,100389.88
2023-12-24T10:47:27.908Z,100378.25
2023-12-24T10:49:57.164Z,100377.38
2023-12-24T10:52:23.760Z,100381.59
2023-12-24T10:55:04.046Z,100377.09
2023-12-24T10:58:04.614Z,100391.44
2023-12-24T11:00:31.815Z,100382.31
2023-12-24T11:02:58.620Z,100364.78
2023-12-24T11:05:45.080Z,100350.59
2023-12-24T11:08:20.524Z,100332.78
2023-12-24T11:10:54.458Z,100324.78
2023-12-24T11:13:33.353Z,100317.50
2023-12-24T11:16:01.183Z,100315.81
2023-12-24T11:18:40.747Z,100338.97
2023-12-24T11:21:07.176Z,100305.03
2023-12-24T11:23:33.872Z,100299.53
2023-12-24T11:26:00.701Z,100317.25
2023-12-24T11:28:27.133Z,100309.81
2023-12-24T11:30:53.707Z,100316.00
2023-12-24T11:33:29.635Z,100319.50
2023-12-24T11:35:57.925Z,100316.97
2023-12-24T11:38:42.811Z,100331.25
2023-12-24T11:41:23.305Z,100329.19
2023-12-24T11:44:00.540Z,100331.16
2023-12-24T11:46:31.610Z,100322.31
2023-12-24T11:49:08.517Z,100324.13
2023-12-24T11:51:36.245Z,100287.94
2023-12-24T11:54:07.523Z,100275.28
2023-12-24T11:56:49.487Z,100291.28
2023-12-24T11:59:16.892Z,100286.66
2023-12-24T12:04:49.742Z,100291.72
2023-12-24T12:07:16.481Z,100302.41
2023-12-24T12:09:42.947Z,100301.69
2023-12-24T12:12:23.789Z,100282.78
2023-12-24T12:15:07.732Z,100281.78
2023-12-24T12:17:34.575Z,100262.13
2023-12-24T12:20:01.124Z,100268.03
2023-12-24T12:22:36.111Z,100274.81
2023-12-24T12:25:03.810Z,100249.13
2023-12-24T12:27:44.149Z,100247.03
2023-12-24T12:30:18.171Z,100248.97
2023-12-24T12:32:44.881Z,100246.47
2023-12-24T12:35:18.751Z,100243.66
2023-12-24T12:37:54.648Z,100233.69
2023-12-24T12:40:26.345Z,100229.19
2023-12-24T12:42:58.619Z,100230.03
2023-12-24T12:45:25.671Z,100230.03
2023-12-24T12:47:52.606Z,100226.09
2023-12-24T12:50:37.465Z,100251.94
2023-12-24T12:53:05.746Z,100238.59
2023-12-24T12:55:32.261Z,100233.41
2023-12-24T12:58:14.180Z,100232.16
2023-12-24T13:00:40.708Z,100245.50
2023-12-24T13:03:11.476Z,100233.88
2023-12-24T13:05:38.532Z,100218.69
2023-12-24T13:08:19.203Z,100229.94
2023-12-24T13:10:45.928Z,100220.94
2023-12-24T13:13:18.210Z,100219.25
2023-12-24T13:15:45.576Z,100227.97
2023-12-24T13:18:25.926Z,100217.16
2023-12-24T13:20:53.534Z,100219.81
2023-12-24T13:23:24.354Z,100233.88
2023-12-24T13:25:51.930Z,100198.94
2023-12-24T13:28:19.218Z,100219.28
2023-12-24T13:30:46.766Z,100197.50
2023-12-24T13:33:14.086Z,100211.69
2023-12-24T13:35:43.962Z,100211.81
2023-12-24T13:38:15.475Z,100201.88
2023-12-24T13:40:43.055Z,100206.09
2023-12-24T13:43:11.003Z,100194.97
2023-12-24T13:45:38.012Z,100201.16
2023-12-24T13:48:05.740Z,100185.44
2023-12-24T13:50:33.374Z,100167.63
2023-12-24T13:53:11.893Z,100178.97
2023-12-24T13:55:46.717Z,100163.13
2023-12-24T13:58:13.280Z,100163.53
2023-12-24T14:00:50.355Z,100177.31
2023-12-24T14:03:17.926Z,100169.03
2023-12-24T14:05:44.406Z,100157.50
2023-12-24T14:08:11.799Z,100170.97
2023-12-24T14:10:38.422Z,100163.69
2023-12-24T14:13:04.993Z,100160.03
2023-12-24T14:15:31.387Z,100145.72
2023-12-24T14:17:59.820Z,100142.19
2023-12-24T14:20:26.779Z,100157.78
2023-12-24T14:22:53.448Z,100144.59
2023-12-24T14:25:20.055Z,100157.25
2023-12-24T14:30:36.849Z,100144.03
2023-12-24T14:33:04.673Z,100132.50
2023-12-24T14:35:31.578Z,100132.78
2023-12-24T14:37:58.279Z,100142.75
2023-12-24T14:40:24.964Z,100142.47
2023-12-24T14:42:52.381Z,100144.47
2023-12-24T14:45:19.044Z,100150.06
2023-12-24T14:47:45.641Z,100145.84
2023-12-24T14:50:12.311Z,100140.81
2023-12-24T14:52:38.865Z,100149.75
2023-12-24T14:55:08.129Z,100130.25
2023-12-24T14:57:36.547Z,100132.81
2023-12-24T15:00:04.143Z,100155.97
2023-12-24T15:02:30.668Z,100157.22
2023-12-24T15:04:57.581Z,100144.03
2023-12-24T15:07:33.558Z,100155.66
2023-12-24T15:10:00.514Z,100150.31
2023-12-24T15:12:27.234Z,100147.53
2023-12-24T15:14:56.249Z,100160.88
2023-12-24T15:17:23.069Z,100151.03
2023-12-24T15:19:51.542Z,100153.00
2023-12-24T15:22:19.011Z,100166.47
2023-12-24T15:24:45.616Z,100161.00
2023-12-24T15:27:12.079Z,100164.78
2023-12-24T15:29:39.228Z,100156.25
2023-12-24T15:32:06.771Z,100158.75
2023-12-24T15:34:45.681Z,100162.69
2023-12-24T15:37:24.240Z,100148.25
2023-12-24T15:39:50.793Z,100149.91
2023-12-24T15:42:17.246Z,100145.69
2023-12-24T15:44:43.933Z,100143.88
2023-12-24T15:47:10.872Z,100147.25
2023-12-24T15:49:37.517Z,100168.44
2023-12-24T15:54:56.239Z,100202.16
2023-12-24T15:57:32.556Z,100178.81
2023-12-24T16:00:00.427Z,100188.53
2023-12-24T16:02:30.091Z,100179.13
2023-12-24T16:04:57.090Z,100154.69
2023-12-24T16:07:23.796Z,100187.69
2023-12-24T16:09:52.814Z,100177.88
2023-12-24T16:12:19.430Z,100185.72
2023-12-24T16:14:46.144Z,100176.88
2023-12-24T16:17:13.026Z,100175.75
2023-12-24T16:19:42.407Z,100206.09
2023-12-24T16:24:55.294Z,100197.09
2023-12-24T16:27:26.676Z,100184.59
2023-12-24T16:30:02.125Z,100186.69
2023-12-24T16:32:28.825Z,100192.88
2023-12-24T16:34:55.399Z,100235.44
2023-12-24T16:37:22.005Z,100213.81
2023-12-24T16:39:49.514Z,100228.66
2023-12-24T16:42:17.053Z,100218.16
2023-12-24T16:44:43.638Z,100226.16
2023-12-24T16:47:21.776Z,100239.50
2023-12-24T16:50:01.213Z,100208.44
2023-12-24T16:52:27.829Z,100243.84
2023-12-24T16:54:54.290Z,100228.53
2023-12-24T16:57:20.733Z,100239.34
2023-12-24T16:59:47.334Z,100269.78
2023-12-24T17:02:14.008Z,100232.03
2023-12-24T17:04:40.975Z,100258.72
2023-12-24T17:07:07.495Z,100271.50
2023-12-24T17:09:36.532Z,100259.16
2023-12-24T17:12:05.228Z,100272.63
2023-12-24T17:14:36.036Z,100264.63
2023-12-24T17:17:02.943Z,100265.34
2023-12-24T17:19:29.486Z,100252.72
2023-12-24T17:21:56.089Z,100243.56
2023-12-24T17:24:22.722Z,100239.66
2023-12-24T17:26:49.543Z,100249.91
2023-12-24T17:29:17.416Z,100257.63
2023-12-24T17:31:44.030Z,100272.78
2023-12-24T17:34:10.696Z,100251.44
2023-12-24T17:36:37.459Z,100256.66
2023-12-24T17:39:04.471Z,100253.00
2023-12-24T17:41:31.043Z,100271.69
2023-12-24T17:43:57.586Z,100262.00
2023-12-24T17:46:24.348Z,100267.19
2023-12-24T17:48:51.208Z,100285.88
2023-12-24T17:51:17.991Z,100311.72
2023-12-24T17:53:44.901Z,100316.50
2023-12-24T17:56:11.600Z,100313.81
2023-12-24T17:58:38.222Z,100316.78
2023-12-24T18:01:04.771Z,100321.28
2023-12-24T18:03:31.648Z,100328.44
2023-12-24T18:05:58.523Z,100333.91
2023-12-24T18:08:25.685Z,100354.13
2023-12-24T18:10:53.046Z,100338.84
2023-12-24T18:13:19.670Z,100342.63
2023-12-24T18:15:46.746Z,100342.50
2023-12-24T18:18:13.284Z,100354.03
2023-12-24T18:20:39.873Z,100335.50
2023-12-24T18:23:06.513Z,100346.72
2023-12-24T18:25:33.171Z,100341.66
2023-12-24T18:28:00.247Z,100338.16
2023-12-24T18:30:33.074Z,100331.69
2023-12-24T18:33:00.895Z,100327.22
2023-12-24T18:35:28.426Z,100330.16
2023-12-24T18:37:55.033Z,100356.97
2023-12-24T18:40:21.810Z,100343.22
2023-12-24T18:42:48.340Z,100349.53
2023-12-24T18:45:15.092Z,100350.00
2023-12-24T18:47:41.828Z,100349.59
2023-12-24T18:50:08.720Z,100342.13
2023-12-24T18:52:39.844Z,100363.91
2023-12-24T18:55:09.264Z,100357.16
2023-12-24T18:57:38.924Z,100364.19
2023-12-24T19:00:06.995Z,100365.88
2023-12-24T19:02:33.443Z,100370.25
2023-12-24T19:05:01.515Z,100368.69
2023-12-24T19:07:28.713Z,100366.84
2023-12-24T19:09:55.302Z,100354.34
2023-12-24T19:12:23.859Z,100367.56
2023-12-24T19:14:50.573Z,100368.69
2023-12-24T19:17:17.185Z,100364.06
2023-12-24T19:19:43.741Z,100385.13
2023-12-24T19:22:10.947Z,100362.50
2023-12-24T19:24:37.627Z,100361.91
2023-12-24T19:27:04.977Z,100350.38
2023-12-24T19:29:31.603Z,100366.53
2023-12-24T19:32:00.895Z,100369.19
2023-12-24T19:34:29.464Z,100378.19
2023-12-24T19:36:56.609Z,100371.16
2023-12-24T19:39:23.295Z,100388.16
2023-12-24T19:41:49.975Z,100392.38
2023-12-24T19:44:16.593Z,100390.66
2023-12-24T19:46:43.474Z,100408.66
2023-12-24T19:49:10.064Z,100392.38
2023-12-24T19:51:44.094Z,100404.16
2023-12-24T19:54:13.364Z,100429.03
2023-12-24T19:56:44.454Z,100419.06
2023-12-24T19:59:11.046Z,100425.53
2023-12-24T20:01:45.658Z,100423.13
2023-12-24T20:04:13.631Z,100426.63
2023-12-24T20:06:40.603Z,100400.66
2023-12-24T20:09:18.249Z,100410.63
2023-12-24T20:11:45.039Z,100425.63
2023-12-24T20:14:11.711Z,100431.13
2023-12-24T20:16:38.652Z,100392.31
2023-12-24T20:19:05.267Z,100396.97
2023-12-24T20:21:31.906Z,100415.66
2023-12-24T20:24:01.222Z,100387.25
2023-12-24T20:26:28.078Z,100394.16
2023-12-24T20:28:55.065Z,100412.84
2023-12-24T20:31:21.535Z,100398.53
2023-12-24T20:33:49.862Z,100406.38
2023-12-24T20:36:18.949Z,100398.25
2023-12-24T20:39:35.285Z,100422.28
2023-12-24T20:41:46.245Z,100395.72
2023-12-24T20:44:17.277Z,100419.47
2023-12-24T20:46:56.447Z,100437.16
2023-12-24T20:49:46.746Z,100417.38
2023-12-24T20:52:13.400Z,100427.34
2023-12-24T20:54:40.801Z,100417.38
2023-12-24T20:57:26.660Z,100417.50
2023-12-24T20:59:54.498Z,100430.09
2023-12-24T21:02:21.322Z,100415.75
2023-12-24T21:04:48.058Z,100417.13
2023-12-24T21:07:19.016Z,100432.56
2023-12-24T21:09:45.724Z,100425.78
2023-12-24T21:12:12.552Z,100426.66
2023-12-24T21:14:44.629Z,100439.97
2023-12-24T21:17:18.620Z,100429.31
2023-12-24T21:19:45.569Z,100434.38
2023-12-24T21:22:12.361Z,100423.72
2023-12-24T21:24:54.072Z,100436.91
2023-12-24T21:27:20.721Z,100426.81
2023-12-24T21:29:52.453Z,100462.94
2023-12-24T21:32:23.503Z,100428.25
2023-12-24T21:34:52.965Z,100449.59
2023-12-24T21:37:19.473Z,100428.25
2023-12-24T21:39:46.131Z,100448.75
2023-12-24T21:42:12.766Z,100420.94
2023-12-24T21:44:42.409Z,100426.41
2023-12-24T21:47:09.656Z,100451.16
2023-12-24T21:49:45.023Z,100427.25
2023-12-24T21:52:12.151Z,100430.22
2023-12-24T21:54:38.716Z,100433.50
2023-12-24T21:57:12.418Z,100444.28
2023-12-24T21:59:39.269Z,100437.69
2023-12-24T22:02:06.014Z,100435.91
2023-12-24T22:04:32.608Z,100444.03
2023-12-24T22:06:59.298Z,100444.03
2023-12-24T22:09:25.864Z,100452.88
2023-12-24T22:11:52.552Z,100451.63
2023-12-24T22:14:19.394Z,100457.81
2023-12-24T22:16:45.926Z,100444.47
2023-12-24T22:19:20.476Z,100460.59
2023-12-24T22:21:50.138Z,100471.84
2023-12-24T22:24:24.721Z,100461.91
2023-12-24T22:26:51.521Z,100470.06
2023-12-24T22:29:18.167Z,100469.91
2023-12-24T22:31:44.670Z,100444.78
2023-12-24T22:34:11.247Z,100448.56
2023-12-24T22:36:38.525Z,100439.59
2023-12-24T22:39:05.157Z,100459.94
2023-12-24T22:41:31.818Z,100467.13
2023-12-24T22:43:58.477Z,100452.06
2023-12-24T22:46:25.152Z,100459.78
2023-12-24T22:48:51.990Z,100458.00
2023-12-24T22:51:18.553Z,100448.44
2023-12-24T22:53:45.209Z,100447.59
2023-12-24T22:56:12.317Z,100452.22
2023-12-24T22:58:39.238Z,100443.22
2023-12-24T23:01:11.408Z,100451.78
2023-12-24T23:03:39.041Z,100445.50
2023-12-24T23:06:14.845Z,100415.97
2023-12-24T23:08:52.336Z,100444.66
2023-12-24T23:11:20.799Z,100431.44
2023-12-24T23:13:53.451Z,100434.25
2023-12-24T23:16:20.383Z,100440.28
2023-12-24T23:18:47.068Z,100458.28
2023-12-24T23:21:20.237Z,100424.25
2023-12-24T23:23:46.771Z,100432.53
2023-12-24T23:26:13.366Z,100439.59
2023-12-24T23:28:39.966Z,100438.59
2023-12-24T23:31:06.873Z,100458.38
2023-12-24T23:33:34.198Z,100457.81
2023-12-24T23:36:08.762Z,100464.97
2023-12-24T23:38:40.272Z,100442.91
2023-12-24T23:41:06.933Z,100445.84
2023-12-24T23:43:34.008Z,100443.19
2023-12-24T23:46:01.209Z,100445.97
2023-12-24T23:48:37.974Z,100442.47
2023-12-24T23:51:05.451Z,100453.28
2023-12-24T23:53:39.560Z,100465.38
2023-12-24T23:56:13.363Z,100468.50
2023-12-24T23:58:40.584Z,100464.25
